Time;durP1;ratioP1;P1;durP2;ratioP2;P2;SDS_P1;SDS_P2;PMS_P1;PMS_P2;Temp;Humidity;BMP_temperature;BMP_pressure;BME280_temperature;BME280_humidity;BME280_pressure;Samples;Min_cycle;Max_cycle;Signal;HPM_P1;HPM_P2
2023/10/06 00:01:04;;;;;;;1.50;1.10;;;12.70;98.20;;;;;;4957365;28;20482;-76
2023/10/06 00:03:31;;;;;;;1.50;1.10;;;12.70;98.20;;;;;;4974322;28;20938;-76
2023/10/06 00:05:57;;;;;;;1.50;1.00;;;12.70;98.20;;;;;;4957624;28;20470;-76
2023/10/06 00:08:32;;;;;;;1.50;1.10;;;12.70;98.20;;;;;;4979374;28;20569;-76
2023/10/06 00:11:10;;;;;;;1.50;1.20;;;12.70;98.20;;;;;;4956820;28;20512;-76
2023/10/06 00:13:37;;;;;;;1.50;1.10;;;12.70;98.20;;;;;;4965548;28;20474;-76
2023/10/06 00:16:07;;;;;;;1.50;1.10;;;12.70;98.20;;;;;;4957204;28;21004;-75
2023/10/06 00:18:36;;;;;;;1.50;1.10;;;12.70;98.20;;;;;;4963545;28;20465;-76
2023/10/06 00:21:14;;;;;;;1.50;1.10;;;12.70;98.20;;;;;;4959034;28;21016;-76
2023/10/06 00:23:43;;;;;;;1.50;1.20;;;12.70;98.20;;;;;;4976753;28;21035;-76
2023/10/06 00:26:16;;;;;;;1.50;1.03;;;12.70;98.20;;;;;;4950791;28;21647;-76
2023/10/06 00:28:44;;;;;;;1.50;1.10;;;12.70;98.20;;;;;;4972930;28;20464;-76
2023/10/06 00:31:13;;;;;;;1.50;1.07;;;12.70;98.20;;;;;;4957193;28;21074;-76
2023/10/06 00:33:42;;;;;;;1.50;1.10;;;12.70;98.20;;;;;;4964963;28;20695;-75
2023/10/06 00:36:13;;;;;;;1.50;1.10;;;12.60;98.20;;;;;;4957371;28;20501;-76
2023/10/06 00:38:42;;;;;;;1.50;1.10;;;12.60;98.20;;;;;;4970542;28;21014;-76
2023/10/06 00:41:14;;;;;;;1.50;1.10;;;12.60;98.20;;;;;;4959592;28;20483;-76
2023/10/06 00:43:43;;;;;;;1.50;1.10;;;12.60;98.20;;;;;;4977866;28;20489;-76
2023/10/06 00:46:12;;;;;;;1.50;1.10;;;12.60;98.20;;;;;;4956949;28;20485;-76
2023/10/06 00:48:40;;;;;;;1.50;1.10;;;12.60;98.20;;;;;;4965702;28;20486;-75
2023/10/06 00:51:12;;;;;;;1.50;1.00;;;12.60;98.20;;;;;;4960193;28;20470;-75
2023/10/06 00:53:39;;;;;;;1.50;1.10;;;12.60;98.20;;;;;;4978584;28;20473;-76
2023/10/06 00:56:10;;;;;;;1.50;1.10;;;12.60;98.20;;;;;;4955944;28;20477;-76
2023/10/06 00:58:41;;;;;;;1.50;1.00;;;12.60;98.20;;;;;;4964903;28;20466;-76
2023/10/06 01:01:08;;;;;;;1.50;1.00;;;12.60;98.20;;;;;;4959029;28;20477;-75
2023/10/06 01:03:39;;;;;;;1.50;1.13;;;12.60;98.20;;;;;;4979899;28;20597;-76
2023/10/06 01:06:12;;;;;;;1.50;1.00;;;12.60;98.20;;;;;;4955182;28;20466;-76
2023/10/06 01:08:39;;;;;;;1.50;1.10;;;12.60;98.20;;;;;;4970753;28;20477;-77
2023/10/06 01:11:11;;;;;;;1.50;1.10;;;12.60;98.20;;;;;;4954811;28;20474;-76
2023/10/06 01:13:52;;;;;;;1.50;1.13;;;12.60;98.20;;;;;;4979352;28;20462;-76
2023/10/06 01:16:19;;;;;;;1.50;1.10;;;12.60;98.20;;;;;;4957827;28;20506;-76
2023/10/06 01:18:50;;;;;;;1.50;1.10;;;12.60;98.20;;;;;;4962770;28;20851;-76
2023/10/06 01:21:17;;;;;;;1.50;1.10;;;12.70;98.20;;;;;;4958561;28;20770;-76
2023/10/06 01:23:48;;;;;;;1.50;1.13;;;12.70;98.20;;;;;;4972067;28;20486;-75
2023/10/06 01:26:15;;;;;;;1.50;1.10;;;12.60;98.20;;;;;;4957523;28;20533;-76
2023/10/06 01:28:45;;;;;;;1.50;1.10;;;12.60;98.20;;;;;;4971282;28;20554;-76
2023/10/06 01:31:12;;;;;;;1.50;1.00;;;12.60;98.20;;;;;;4955816;28;21043;-76
2023/10/06 01:33:39;;;;;;;1.50;1.00;;;12.60;98.20;;;;;;4964496;28;20521;-76
2023/10/06 01:36:13;;;;;;;1.50;1.20;;;12.60;98.20;;;;;;4956577;28;20477;-76
2023/10/06 01:38:41;;;;;;;1.50;1.00;;;12.60;98.20;;;;;;4975427;28;20521;-75
2023/10/06 01:41:09;;;;;;;1.50;1.20;;;12.60;98.20;;;;;;4957967;28;20602;-76
2023/10/06 01:43:38;;;;;;;1.50;1.10;;;12.60;98.20;;;;;;4974141;28;20609;-76
2023/10/06 01:46:07;;;;;;;1.50;1.10;;;12.60;98.20;;;;;;4956583;28;20500;-76
2023/10/06 01:48:36;;;;;;;1.50;1.10;;;12.60;98.20;;;;;;4965690;28;20466;-76
2023/10/06 01:51:08;;;;;;;1.50;1.10;;;12.60;98.20;;;;;;4956942;28;20515;-77
2023/10/06 01:53:40;;;;;;;1.50;1.00;;;12.60;98.20;;;;;;4966413;28;20510;-76
2023/10/06 01:56:09;;;;;;;1.50;1.10;;;12.60;98.20;;;;;;4956235;28;20538;-76
2023/10/06 01:58:37;;;;;;;1.50;1.00;;;12.60;98.20;;;;;;4965622;28;20466;-76
2023/10/06 02:01:05;;;;;;;1.50;1.07;;;12.60;98.20;;;;;;4956486;28;20537;-77
2023/10/06 02:03:38;;;;;;;1.50;1.10;;;12.60;98.20;;;;;;4966839;28;20532;-76
2023/10/06 02:06:05;;;;;;;1.50;1.20;;;12.60;98.20;;;;;;4957636;28;20528;-75
2023/10/06 02:08:32;;;;;;;1.50;1.10;;;12.60;98.20;;;;;;4966634;28;20828;-75
2023/10/06 02:11:01;;;;;;;1.50;1.10;;;12.50;98.20;;;;;;4957231;28;20532;-76
2023/10/06 02:13:32;;;;;;;1.50;1.10;;;12.60;98.20;;;;;;4966270;28;20773;-77
2023/10/06 02:15:59;;;;;;;1.60;1.20;;;12.60;98.20;;;;;;4958510;28;20964;-77
2023/10/06 02:18:35;;;;;;;1.50;1.10;;;12.60;98.20;;;;;;4980373;28;20492;-75
2023/10/06 02:21:06;;;;;;;1.50;1.00;;;12.60;98.20;;;;;;4957201;28;20485;-75
2023/10/06 02:23:37;;;;;;;1.50;1.10;;;12.60;98.20;;;;;;4967380;28;20581;-77
2023/10/06 02:26:07;;;;;;;1.50;1.10;;;12.50;98.20;;;;;;4958962;28;20821;-77
2023/10/06 02:28:36;;;;;;;1.50;1.10;;;12.50;98.20;;;;;;4979480;28;20470;-77
2023/10/06 02:31:05;;;;;;;1.50;1.10;;;12.60;98.20;;;;;;4956783;28;20939;-76
2023/10/06 02:33:36;;;;;;;1.50;1.20;;;12.50;98.20;;;;;;4966409;28;20871;-75
2023/10/06 02:36:15;;;;;;;1.50;1.10;;;12.50;98.20;;;;;;4956663;28;20462;-77
2023/10/06 02:38:46;;;;;;;1.50;1.10;;;12.50;98.20;;;;;;4966700;28;20461;-78
2023/10/06 02:41:18;;;;;;;1.50;1.10;;;12.50;98.20;;;;;;4960707;28;20484;-76
2023/10/06 02:43:47;;;;;;;1.50;1.10;;;12.50;98.20;;;;;;4977094;23;20561;-83
2023/10/06 02:46:15;;;;;;;1.50;1.00;;;12.40;98.20;;;;;;4952557;28;20591;-84
2023/10/06 02:48:48;;;;;;;1.50;1.10;;;12.40;98.20;;;;;;4972437;28;20473;-83
2023/10/06 02:51:20;;;;;;;1.50;1.10;;;12.40;98.20;;;;;;4956264;28;20488;-83
2023/10/06 02:53:50;;;;;;;1.50;1.03;;;12.30;98.20;;;;;;4968193;28;20825;-83
2023/10/06 02:56:28;;;;;;;1.50;1.10;;;12.30;98.20;;;;;;4955521;28;20474;-81
2023/10/06 02:59:06;;;;;;;1.50;1.10;;;12.30;98.20;;;;;;4973829;28;20569;-82
2023/10/06 03:01:33;;;;;;;1.50;1.00;;;12.30;98.20;;;;;;4959736;28;20484;-83
2023/10/06 03:04:06;;;;;;;1.50;1.10;;;12.30;98.20;;;;;;4973655;28;20490;-79
2023/10/06 03:06:33;;;;;;;1.50;1.00;;;12.30;98.20;;;;;;4955579;28;20477;-80
2023/10/06 03:09:06;;;;;;;1.50;1.10;;;12.30;98.20;;;;;;4965002;28;20546;-82
2023/10/06 03:11:34;;;;;;;1.50;1.10;;;12.30;98.20;;;;;;4954347;28;20489;-83
2023/10/06 03:14:07;;;;;;;1.50;1.10;;;12.30;98.20;;;;;;4968678;28;20517;-81
2023/10/06 03:16:39;;;;;;;1.50;1.10;;;12.30;98.20;;;;;;4959136;28;20482;-80
2023/10/06 03:19:07;;;;;;;1.53;1.10;;;12.30;98.20;;;;;;4965436;28;20522;-79
2023/10/06 03:21:39;;;;;;;1.57;1.20;;;12.30;98.20;;;;;;4957152;28;20895;-82
2023/10/06 03:24:15;;;;;;;1.50;1.10;;;12.30;98.20;;;;;;4964917;28;20492;-84
2023/10/06 03:26:45;;;;;;;1.50;1.10;;;12.30;98.20;;;;;;4953312;28;20473;-80
2023/10/06 03:29:28;;;;;;;1.50;1.00;;;12.30;98.20;;;;;;4965616;28;20514;-82
2023/10/06 03:31:56;;;;;;;1.50;1.00;;;12.30;98.20;;;;;;4961402;28;20887;-84
2023/10/06 03:34:26;;;;;;;1.50;1.10;;;12.30;98.20;;;;;;4965351;28;20491;-80
2023/10/06 03:36:55;;;;;;;1.50;1.00;;;12.30;98.20;;;;;;4957795;28;20521;-83
2023/10/06 03:39:27;;;;;;;1.50;1.10;;;12.30;98.20;;;;;;4964314;28;20463;-81
2023/10/06 03:42:00;;;;;;;1.50;1.20;;;12.30;98.20;;;;;;4958782;28;20485;-83
2023/10/06 03:44:30;;;;;;;1.50;1.20;;;12.20;98.20;;;;;;4962604;28;20514;-85
2023/10/06 03:47:00;;;;;;;1.60;1.30;;;12.20;98.20;;;;;;4950134;28;20496;-83
2023/10/06 03:49:27;;;;;;;1.50;1.00;;;12.20;98.20;;;;;;4966870;28;20468;-81
2023/10/06 03:51:55;;;;;;;1.50;1.10;;;12.20;98.20;;;;;;4950587;28;20481;-80
2023/10/06 03:54:24;;;;;;;1.50;1.10;;;12.20;98.20;;;;;;4960703;28;20475;-80
2023/10/06 03:56:51;;;;;;;1.50;1.10;;;12.20;98.20;;;;;;4956991;28;20478;-82
2023/10/06 03:59:21;;;;;;;1.50;1.10;;;12.20;98.20;;;;;;4966915;28;20463;-81
2023/10/06 04:01:51;;;;;;;1.60;1.20;;;12.20;98.20;;;;;;4960202;28;20525;-78
2023/10/06 04:04:22;;;;;;;1.57;1.30;;;12.20;98.20;;;;;;4965704;28;20494;-80
2023/10/06 04:06:49;;;;;;;1.50;1.10;;;12.20;98.20;;;;;;4958721;28;20485;-80
2023/10/06 04:09:21;;;;;;;1.50;1.10;;;12.20;98.20;;;;;;4968768;28;20914;-80
2023/10/06 04:11:48;;;;;;;1.50;1.10;;;12.20;98.20;;;;;;4959671;28;20478;-79
2023/10/06 04:14:14;;;;;;;1.53;1.30;;;12.10;98.20;;;;;;4966404;28;20610;-82
2023/10/06 04:16:45;;;;;;;1.50;1.20;;;12.10;98.20;;;;;;4958337;28;21059;-82
2023/10/06 04:19:16;;;;;;;1.50;1.10;;;12.10;98.20;;;;;;4960309;28;20487;-79
2023/10/06 04:21:54;;;;;;;1.50;1.00;;;12.10;98.20;;;;;;4948181;28;20653;-79
2023/10/06 04:24:21;;;;;;;1.50;1.00;;;12.10;98.20;;;;;;4955975;28;20498;-79
2023/10/06 04:26:47;;;;;;;1.50;1.17;;;12.00;98.20;;;;;;4953204;28;21039;-79
2023/10/06 04:29:14;;;;;;;1.53;1.10;;;12.00;98.20;;;;;;4960659;28;20477;-79
2023/10/06 04:31:41;;;;;;;1.50;1.00;;;12.00;98.20;;;;;;4953019;28;20482;-79
2023/10/06 04:34:09;;;;;;;1.50;1.10;;;12.00;98.20;;;;;;4963314;28;20554;-79
2023/10/06 04:36:39;;;;;;;1.50;1.10;;;11.90;98.20;;;;;;4952941;28;20474;-80
2023/10/06 04:39:10;;;;;;;1.50;1.00;;;11.90;98.20;;;;;;4958382;28;20486;-79
2023/10/06 04:41:37;;;;;;;1.57;1.10;;;11.90;98.20;;;;;;4950270;28;21154;-79
2023/10/06 04:44:04;;;;;;;1.50;1.20;;;11.90;98.20;;;;;;4964362;28;20501;-79
2023/10/06 04:46:30;;;;;;;1.50;1.10;;;11.90;98.20;;;;;;4955149;28;20473;-80
2023/10/06 04:48:57;;;;;;;1.50;1.10;;;11.80;98.20;;;;;;4966807;28;20463;-79
2023/10/06 04:51:27;;;;;;;1.50;1.10;;;11.80;98.20;;;;;;4954306;28;20533;-81
2023/10/06 04:53:55;;;;;;;1.50;1.10;;;11.80;98.20;;;;;;4970727;28;20534;-79
2023/10/06 04:56:22;;;;;;;1.50;1.10;;;11.80;98.20;;;;;;4963817;28;20457;-79
2023/10/06 04:58:49;;;;;;;1.53;1.10;;;11.80;98.20;;;;;;4979940;28;20451;-79
2023/10/06 05:01:16;;;;;;;1.50;1.10;;;11.80;98.20;;;;;;4949016;28;20512;-80
2023/10/06 05:03:43;;;;;;;1.70;1.50;;;11.80;98.20;;;;;;4967820;28;20570;-79
2023/10/06 05:06:13;;;;;;;1.50;1.07;;;11.80;98.20;;;;;;4945717;28;20649;-80
2023/10/06 05:08:40;;;;;;;1.53;1.10;;;11.80;98.20;;;;;;4966069;28;20471;-80
2023/10/06 05:11:10;;;;;;;1.60;1.30;;;11.80;98.20;;;;;;4945001;28;20478;-80
2023/10/06 05:13:38;;;;;;;1.50;1.13;;;11.80;98.20;;;;;;4967192;28;20515;-80
2023/10/06 05:16:05;;;;;;;1.50;1.10;;;11.80;98.20;;;;;;4948809;28;20474;-80
2023/10/06 05:18:33;;;;;;;1.53;1.10;;;11.80;98.20;;;;;;4967625;28;20475;-80
2023/10/06 05:21:01;;;;;;;1.50;1.10;;;11.80;98.20;;;;;;4950182;28;20498;-80
2023/10/06 05:23:46;;;;;;;1.53;1.10;;;11.80;98.20;;;;;;4966619;28;20484;-81
2023/10/06 05:26:14;;;;;;;2.17;1.97;;;11.70;98.20;;;;;;4946989;28;20629;-80
2023/10/06 05:28:42;;;;;;;1.50;1.10;;;11.70;98.20;;;;;;4963533;28;20543;-81
2023/10/06 05:31:09;;;;;;;1.53;1.10;;;11.70;98.20;;;;;;4942076;28;20852;-80
2023/10/06 05:33:36;;;;;;;1.50;1.00;;;11.70;98.20;;;;;;4967096;28;20554;-81
2023/10/06 05:36:10;;;;;;;1.50;1.20;;;11.70;98.20;;;;;;4950504;28;20506;-80
2023/10/06 05:38:37;;;;;;;1.77;1.50;;;11.70;98.20;;;;;;4968401;28;20474;-80
2023/10/06 05:41:08;;;;;;;1.50;1.17;;;11.60;98.20;;;;;;4947450;28;20590;-80
2023/10/06 05:43:39;;;;;;;1.50;1.10;;;11.60;98.20;;;;;;4969606;28;20502;-80
2023/10/06 05:46:06;;;;;;;1.53;1.20;;;11.60;98.20;;;;;;4949443;28;20482;-80
2023/10/06 05:48:34;;;;;;;1.50;1.10;;;11.60;98.20;;;;;;4967295;28;20526;-81
2023/10/06 05:51:04;;;;;;;1.50;1.10;;;11.70;98.20;;;;;;4941326;28;20498;-79
2023/10/06 05:53:38;;;;;;;1.50;1.10;;;11.70;98.20;;;;;;4964645;28;20487;-80
2023/10/06 05:56:07;;;;;;;1.50;1.10;;;11.70;98.20;;;;;;4948962;28;21016;-79
2023/10/06 05:58:34;;;;;;;1.50;1.10;;;11.80;98.20;;;;;;4968185;28;20501;-81
2023/10/06 06:01:06;;;;;;;1.50;1.10;;;11.80;98.20;;;;;;4950872;28;20846;-79
2023/10/06 06:03:33;;;;;;;1.50;1.10;;;11.80;98.20;;;;;;4968861;28;20519;-80
2023/10/06 06:06:07;;;;;;;1.60;1.10;;;11.80;98.20;;;;;;4951624;28;20537;-80
2023/10/06 06:09:00;;;;;;;1.50;1.27;;;11.80;98.20;;;;;;4970935;28;20495;-81
2023/10/06 06:11:28;;;;;;;1.50;1.10;;;11.80;98.20;;;;;;4950796;28;20474;-80
2023/10/06 06:13:57;;;;;;;1.53;1.10;;;11.80;98.20;;;;;;4964752;28;20515;-80
2023/10/06 06:16:25;;;;;;;1.50;1.20;;;11.80;98.20;;;;;;4952312;28;20574;-82
2023/10/06 06:18:52;;;;;;;1.50;1.10;;;11.80;98.20;;;;;;4964083;28;20490;-79
2023/10/06 06:21:24;;;;;;;1.50;1.10;;;11.90;98.20;;;;;;4955819;28;20496;-78
2023/10/06 06:23:53;;;;;;;1.53;1.10;;;11.90;98.20;;;;;;4969810;28;21035;-81
2023/10/06 06:26:20;;;;;;;1.50;1.10;;;12.00;98.20;;;;;;4951361;28;20469;-80
2023/10/06 06:28:47;;;;;;;1.50;1.10;;;12.00;98.20;;;;;;4968953;28;20504;-81
2023/10/06 06:31:18;;;;;;;1.50;1.20;;;12.00;98.20;;;;;;4952869;28;20510;-80
2023/10/06 06:33:48;;;;;;;1.60;1.20;;;12.10;98.20;;;;;;4966333;28;20498;-80
2023/10/06 06:36:15;;;;;;;1.53;1.10;;;12.10;98.20;;;;;;4951010;28;20465;-80
2023/10/06 06:38:42;;;;;;;1.50;1.10;;;12.30;98.20;;;;;;4967276;28;20462;-80
2023/10/06 06:41:21;;;;;;;1.50;1.20;;;12.30;98.20;;;;;;4947569;28;20560;-80
2023/10/06 06:43:48;;;;;;;1.50;1.10;;;12.50;98.20;;;;;;4966706;28;20533;-81
2023/10/06 06:46:16;;;;;;;1.50;1.00;;;12.60;98.20;;;;;;4953769;28;20596;-80
2023/10/06 06:48:46;;;;;;;1.60;1.17;;;12.70;98.20;;;;;;4967832;28;20471;-82
2023/10/06 06:51:14;;;;;;;1.50;1.10;;;12.80;98.20;;;;;;4951679;28;20487;-80
2023/10/06 06:53:43;;;;;;;1.50;1.10;;;13.00;98.20;;;;;;4967597;28;20521;-80
2023/10/06 06:56:11;;;;;;;1.50;1.10;;;13.10;98.20;;;;;;4948345;28;20508;-78
2023/10/06 06:58:38;;;;;;;1.57;1.00;;;13.30;98.20;;;;;;4969173;28;20470;-80
2023/10/06 07:01:07;;;;;;;1.53;1.00;;;13.40;98.20;;;;;;4948156;28;20467;-80
2023/10/06 07:03:34;;;;;;;1.50;1.07;;;13.50;98.20;;;;;;4968271;28;20490;-79
2023/10/06 07:06:00;;;;;;;1.50;0.93;;;13.50;98.20;;;;;;4947512;28;20484;-80
2023/10/06 07:08:29;;;;;;;1.53;1.00;;;13.70;98.20;;;;;;4966597;28;20467;-79
2023/10/06 07:10:56;;;;;;;1.50;1.00;;;13.70;98.20;;;;;;4947162;28;20551;-80
2023/10/06 07:13:23;;;;;;;1.60;1.40;;;13.80;98.20;;;;;;4967392;28;20637;-79
2023/10/06 07:15:50;;;;;;;1.50;1.00;;;13.80;98.20;;;;;;4942820;28;20462;-81
2023/10/06 07:18:19;;;;;;;1.50;1.00;;;13.90;98.20;;;;;;4967713;28;20967;-80
2023/10/06 07:20:47;;;;;;;1.53;1.10;;;13.90;98.20;;;;;;4950609;28;20973;-80
2023/10/06 07:23:14;;;;;;;1.50;1.00;;;13.90;98.20;;;;;;4968044;28;20553;-80
2023/10/06 07:25:42;;;;;;;1.50;1.10;;;14.00;98.20;;;;;;4955632;28;20478;-79
2023/10/06 07:28:12;;;;;;;1.50;1.00;;;14.00;98.20;;;;;;4960226;28;20490;-81
2023/10/06 07:30:39;;;;;;;1.50;1.00;;;14.10;98.20;;;;;;4952625;28;20475;-79
2023/10/06 07:33:48;;;;;;;1.60;1.33;;;14.10;98.20;;;;;;4960563;28;20638;-80
2023/10/06 07:36:17;;;;;;;1.50;1.00;;;14.10;98.20;;;;;;4955864;28;21054;-80
2023/10/06 07:38:45;;;;;;;2.57;1.37;;;14.20;98.20;;;;;;4969449;28;20481;-81
2023/10/06 07:41:19;;;;;;;1.50;1.00;;;14.30;98.20;;;;;;4950351;28;20482;-81
2023/10/06 07:43:48;;;;;;;1.50;1.00;;;14.30;98.20;;;;;;4965693;28;20497;-79
2023/10/06 07:46:16;;;;;;;1.50;1.00;;;14.40;98.20;;;;;;4945889;28;20555;-79
2023/10/06 07:48:44;;;;;;;1.50;1.00;;;14.40;98.20;;;;;;4964640;28;20477;-80
2023/10/06 07:51:13;;;;;;;1.50;1.00;;;14.50;98.20;;;;;;4943877;28;20489;-79
2023/10/06 07:53:40;;;;;;;1.50;0.90;;;14.60;98.20;;;;;;4969312;28;20490;-78
2023/10/06 07:56:07;;;;;;;1.50;1.03;;;14.60;98.20;;;;;;4945172;28;20534;-77
2023/10/06 07:58:37;;;;;;;1.50;1.00;;;14.70;98.20;;;;;;4968030;28;20502;-77
2023/10/06 08:01:07;;;;;;;1.50;1.00;;;14.80;98.20;;;;;;4945045;28;20522;-79
2023/10/06 08:03:37;;;;;;;1.50;1.00;;;14.90;98.20;;;;;;4969690;28;20517;-79
2023/10/06 08:06:05;;;;;;;1.50;1.00;;;15.00;98.20;;;;;;4946657;28;20541;-80
2023/10/06 08:08:33;;;;;;;1.50;1.00;;;15.10;98.20;;;;;;4962803;28;20476;-80
2023/10/06 08:11:01;;;;;;;1.50;1.00;;;15.10;98.20;;;;;;4943408;28;20482;-80
2023/10/06 08:13:28;;;;;;;1.50;1.00;;;15.10;98.20;;;;;;4963657;28;20483;-78
2023/10/06 08:15:57;;;;;;;1.50;1.00;;;15.20;98.20;;;;;;4941917;28;20465;-81
2023/10/06 08:18:24;;;;;;;1.50;1.10;;;15.20;98.20;;;;;;4965401;28;20592;-80
2023/10/06 08:20:51;;;;;;;1.50;1.10;;;15.30;98.20;;;;;;4940673;28;20931;-78
2023/10/06 08:23:17;;;;;;;1.50;1.00;;;15.40;98.20;;;;;;4961678;28;20898;-81
2023/10/06 08:25:46;;;;;;;1.50;1.10;;;15.60;98.20;;;;;;4948852;28;20828;-80
2023/10/06 08:28:14;;;;;;;1.50;1.10;;;15.70;98.20;;;;;;4942085;28;20506;-78
2023/10/06 08:30:41;;;;;;;1.50;1.00;;;15.90;98.20;;;;;;4959001;28;20530;-81
2023/10/06 08:33:10;;;;;;;1.50;1.00;;;16.10;98.20;;;;;;4969858;28;20864;-77
2023/10/06 08:35:37;;;;;;;1.50;1.00;;;16.30;98.20;;;;;;4966114;28;20940;-81
2023/10/06 08:38:07;;;;;;;1.50;1.00;;;16.40;98.20;;;;;;4957467;28;20492;-79
2023/10/06 08:40:37;;;;;;;1.50;0.90;;;16.60;98.20;;;;;;4948514;28;20467;-78
2023/10/06 08:43:07;;;;;;;1.50;1.00;;;16.80;98.20;;;;;;4955649;28;20492;-80
2023/10/06 08:45:41;;;;;;;1.50;1.00;;;16.90;98.20;;;;;;4947023;28;20491;-79
2023/10/06 08:48:13;;;;;;;1.50;1.00;;;17.00;98.20;;;;;;4955142;28;20496;-79
2023/10/06 08:50:43;;;;;;;1.50;0.93;;;17.10;98.20;;;;;;4948896;28;20471;-79
2023/10/06 08:53:13;;;;;;;1.50;0.90;;;17.30;98.20;;;;;;4953414;28;20569;-79
2023/10/06 08:55:41;;;;;;;1.50;0.97;;;17.40;98.20;;;;;;4947859;28;20624;-78
2023/10/06 08:58:08;;;;;;;1.50;1.00;;;17.60;98.20;;;;;;4955138;28;20922;-78
2023/10/06 09:00:37;;;;;;;1.50;0.90;;;17.80;98.20;;;;;;4947462;28;20464;-80
2023/10/06 09:03:08;;;;;;;1.50;0.93;;;18.00;98.20;;;;;;4954564;28;20516;-80
2023/10/06 09:05:39;;;;;;;1.50;0.90;;;18.10;98.20;;;;;;4948402;28;20495;-79
2023/10/06 09:08:08;;;;;;;1.50;0.90;;;18.30;98.20;;;;;;4956357;28;20498;-77
2023/10/06 09:10:38;;;;;;;1.50;0.90;;;18.40;98.20;;;;;;4948200;28;20986;-79
2023/10/06 09:13:05;;;;;;;1.50;0.90;;;18.60;98.20;;;;;;4955366;28;21225;-81
2023/10/06 09:15:35;;;;;;;1.50;0.90;;;18.70;98.20;;;;;;4948891;28;20829;-79
2023/10/06 09:18:07;;;;;;;1.50;0.97;;;18.80;98.20;;;;;;4955759;28;20477;-80
2023/10/06 09:20:37;;;;;;;1.50;1.00;;;19.00;98.20;;;;;;4951177;28;20858;-80
2023/10/06 09:23:05;;;;;;;1.50;0.90;;;19.10;98.20;;;;;;4954839;28;20818;-80
2023/10/06 09:25:45;;;;;;;1.50;0.90;;;19.30;98.20;;;;;;4948563;28;21077;-80
2023/10/06 09:28:14;;;;;;;1.50;0.90;;;19.50;98.20;;;;;;4940261;28;20490;-80
2023/10/06 09:30:50;;;;;;;1.50;0.90;;;19.60;98.20;;;;;;4948463;28;20481;-81
2023/10/06 09:33:17;;;;;;;1.50;0.90;;;19.80;98.20;;;;;;4940038;28;20495;-80
2023/10/06 09:35:45;;;;;;;1.50;1.00;;;19.90;98.20;;;;;;4948781;28;20459;-80
2023/10/06 09:38:15;;;;;;;1.50;0.90;;;20.00;98.20;;;;;;4955664;28;20530;-80
2023/10/06 09:40:44;;;;;;;1.60;1.20;;;20.10;98.20;;;;;;4947337;28;20466;-80
2023/10/06 09:43:14;;;;;;;1.50;0.90;;;20.20;98.20;;;;;;4955456;28;20549;-79
2023/10/06 09:45:42;;;;;;;1.50;0.90;;;20.40;98.20;;;;;;4947446;28;20491;-77
2023/10/06 09:48:19;;;;;;;1.50;0.90;;;20.50;97.60;;;;;;4959454;28;20555;-78
2023/10/06 09:50:50;;;;;;;1.50;0.90;;;20.70;96.20;;;;;;4940986;28;20543;-79
2023/10/06 09:53:21;;;;;;;1.50;0.90;;;20.80;96.40;;;;;;4965514;28;20570;-80
2023/10/06 09:55:49;;;;;;;1.50;0.90;;;20.90;95.60;;;;;;4935403;28;20919;-79
2023/10/06 09:58:18;;;;;;;1.50;0.90;;;20.80;95.10;;;;;;4963149;28;21009;-80
2023/10/06 10:00:46;;;;;;;1.50;0.90;;;21.00;95.50;;;;;;4947866;28;20550;-80
2023/10/06 10:03:14;;;;;;;1.50;0.90;;;21.10;94.90;;;;;;4954182;28;20482;-80
2023/10/06 10:05:43;;;;;;;1.50;0.90;;;21.30;94.70;;;;;;4946339;28;20546;-80
2023/10/06 10:08:13;;;;;;;1.50;0.90;;;21.40;93.90;;;;;;4954258;28;21009;-79
2023/10/06 10:10:44;;;;;;;1.50;0.90;;;21.50;92.90;;;;;;4948359;28;20473;-78
2023/10/06 10:13:44;;;;;;;1.50;0.90;;;21.50;92.30;;;;;;4939429;28;20590;-80
2023/10/06 10:16:27;;;;;;;1.50;0.90;;;21.60;92.80;;;;;;4942053;28;20480;-79
2023/10/06 10:19:00;;;;;;;1.50;0.90;;;21.60;92.60;;;;;;4976988;28;20553;-79
2023/10/06 10:21:28;;;;;;;1.50;0.90;;;21.70;92.90;;;;;;4962364;28;20577;-79
2023/10/06 10:23:57;;;;;;;1.47;0.90;;;21.90;92.50;;;;;;4976870;28;20492;-79
2023/10/06 10:26:35;;;;;;;1.43;0.90;;;22.00;91.60;;;;;;4960630;28;20491;-79
2023/10/06 10:29:29;;;;;;;1.50;0.90;;;22.10;92.30;;;;;;4977232;28;20466;-77
2023/10/06 10:32:01;;;;;;;1.50;0.90;;;22.10;92.20;;;;;;4934942;28;20497;-81
2023/10/06 10:34:33;;;;;;;1.97;1.77;;;22.20;92.20;;;;;;4957925;28;20485;-79
2023/10/06 10:37:16;;;;;;;1.97;1.67;;;22.20;91.40;;;;;;4958898;28;20508;-79
2023/10/06 10:39:49;;;;;;;1.50;0.90;;;22.30;90.00;;;;;;4966465;28;20529;-79
2023/10/06 10:42:18;;;;;;;1.50;0.90;;;22.30;90.40;;;;;;4954546;28;20907;-80
2023/10/06 10:44:46;;;;;;;1.50;0.90;;;22.40;91.60;;;;;;4951636;28;20473;-79
2023/10/06 10:47:15;;;;;;;1.47;0.90;;;22.40;91.00;;;;;;4949915;28;20490;-79
2023/10/06 10:49:44;;;;;;;1.43;0.90;;;22.50;90.30;;;;;;4953433;28;20576;-79
2023/10/06 10:52:13;;;;;;;1.50;0.90;;;22.50;90.40;;;;;;4946356;28;20471;-78
2023/10/06 10:54:42;;;;;;;1.47;0.90;;;22.50;89.70;;;;;;4953185;28;20581;-79
2023/10/06 10:57:14;;;;;;;1.43;0.90;;;22.60;91.20;;;;;;4948032;28;20580;-78
2023/10/06 11:00:14;;;;;;;1.43;0.90;;;22.60;89.60;;;;;;4951183;28;21029;-78
2023/10/06 11:02:42;;;;;;;1.50;0.90;;;22.70;89.60;;;;;;4879162;29;20573;-79
2023/10/06 11:05:09;;;;;;;1.50;0.90;;;22.70;89.10;;;;;;4890609;29;20481;-77
2023/10/06 11:07:37;;;;;;;1.50;0.90;;;22.80;88.50;;;;;;4918436;28;20486;-79
2023/10/06 11:10:05;;;;;;;1.50;0.80;;;22.70;89.10;;;;;;4951516;28;20945;-78
2023/10/06 11:12:35;;;;;;;1.47;0.90;;;22.70;88.10;;;;;;4951948;28;20496;-79
2023/10/06 11:15:13;;;;;;;1.47;0.90;;;22.60;87.50;;;;;;4962547;28;20474;-79
2023/10/06 11:17:41;;;;;;;1.50;0.90;;;22.60;88.50;;;;;;4969317;28;20580;-78
2023/10/06 11:20:21;;;;;;;1.50;0.90;;;22.80;89.20;;;;;;4953819;28;20490;-78
2023/10/06 11:22:59;;;;;;;1.50;0.90;;;22.90;89.60;;;;;;4957121;28;20993;-77
2023/10/06 11:25:28;;;;;;;1.50;0.90;;;23.10;89.50;;;;;;4943439;28;20805;-79
2023/10/06 11:28:04;;;;;;;1.50;0.90;;;23.20;87.70;;;;;;4955091;28;20577;-80
2023/10/06 11:30:32;;;;;;;1.80;1.47;;;23.20;87.10;;;;;;4946557;28;20549;-77
2023/10/06 11:33:02;;;;;;;1.47;0.90;;;23.30;87.30;;;;;;4951735;28;20950;-77
2023/10/06 11:35:29;;;;;;;1.50;0.90;;;23.40;86.90;;;;;;4943591;28;21343;-77
2023/10/06 11:37:56;;;;;;;1.50;0.90;;;23.40;86.40;;;;;;4954256;28;20536;-79
2023/10/06 11:40:25;;;;;;;1.47;0.90;;;23.40;87.10;;;;;;4945700;28;20578;-78
2023/10/06 11:42:52;;;;;;;1.47;0.90;;;23.50;87.20;;;;;;4954219;28;20678;-78
2023/10/06 11:45:30;;;;;;;1.50;0.90;;;23.50;85.00;;;;;;4950793;28;20487;-79
2023/10/06 11:47:58;;;;;;;1.47;0.90;;;23.50;85.10;;;;;;4957099;28;20509;-79
2023/10/06 11:50:32;;;;;;;1.50;0.90;;;23.50;85.30;;;;;;4956314;28;20447;-83
2023/10/06 11:53:01;;;;;;;1.50;0.90;;;23.40;86.50;;;;;;4957583;28;20544;-78
2023/10/06 11:55:34;;;;;;;1.47;0.80;;;23.30;85.60;;;;;;4949132;28;20856;-78
2023/10/06 12:01:40;;;;;;;1.43;0.90;;;23.10;85.40;;;;;;4945448;28;20991;-79
2023/10/06 12:04:24;;;;;;;1.43;0.90;;;23.00;86.90;;;;;;4972871;28;20593;-76
2023/10/06 12:07:02;;;;;;;1.50;0.90;;;23.00;87.80;;;;;;4969424;28;20492;-78
2023/10/06 12:09:33;;;;;;;1.47;0.90;;;23.10;88.10;;;;;;4979392;28;20470;-79
2023/10/06 12:12:01;;;;;;;1.50;0.90;;;23.10;87.90;;;;;;4970670;28;20488;-77
2023/10/06 12:14:28;;;;;;;1.50;0.90;;;23.10;87.10;;;;;;4971263;28;21026;-79
2023/10/06 12:16:56;;;;;;;1.47;0.90;;;23.20;86.80;;;;;;4965171;28;20524;-78
2023/10/06 12:19:25;;;;;;;1.47;0.90;;;23.30;87.60;;;;;;4978013;28;20557;-77
2023/10/06 12:21:52;;;;;;;1.43;0.80;;;23.40;86.30;;;;;;4965504;28;20532;-77
2023/10/06 12:24:22;;;;;;;1.43;0.80;;;23.50;86.20;;;;;;4972876;28;20774;-78
2023/10/06 12:26:49;;;;;;;1.43;0.87;;;23.60;86.00;;;;;;4965659;28;20547;-77
2023/10/06 12:29:17;;;;;;;1.47;0.90;;;23.60;85.00;;;;;;4971019;28;20549;-77
2023/10/06 12:31:45;;;;;;;1.43;0.90;;;23.70;85.10;;;;;;4963005;28;20527;-77
2023/10/06 12:34:15;;;;;;;1.47;0.83;;;23.90;84.60;;;;;;4974146;28;20482;-78
2023/10/06 12:36:47;;;;;;;1.47;0.87;;;24.00;83.90;;;;;;4966224;28;20519;-77
2023/10/06 12:39:17;;;;;;;1.47;0.90;;;24.10;85.10;;;;;;4973427;28;21062;-77
2023/10/06 12:41:46;;;;;;;1.47;0.90;;;24.20;83.90;;;;;;4962554;28;20476;-77
2023/10/06 12:44:13;;;;;;;1.50;1.20;;;24.30;84.40;;;;;;4970188;28;20853;-77
2023/10/06 12:46:41;;;;;;;1.47;0.90;;;24.20;83.80;;;;;;4961683;28;20520;-76
2023/10/06 12:49:08;;;;;;;1.47;0.80;;;24.10;83.90;;;;;;4979056;28;20486;-78
2023/10/06 12:51:37;;;;;;;1.47;0.80;;;24.00;84.90;;;;;;4972472;28;20597;-78
2023/10/06 12:54:06;;;;;;;1.47;0.90;;;24.00;85.10;;;;;;4977620;28;20600;-77
2023/10/06 12:56:33;;;;;;;1.50;0.90;;;24.00;84.10;;;;;;4965589;28;20473;-78
2023/10/06 12:59:00;;;;;;;1.47;0.90;;;24.00;84.30;;;;;;4982905;28;20565;-78
2023/10/06 13:01:30;;;;;;;1.43;0.90;;;24.10;85.90;;;;;;4959882;28;20554;-78
2023/10/06 13:04:00;;;;;;;1.43;0.80;;;24.10;84.60;;;;;;4974418;28;20580;-78
2023/10/06 13:06:29;;;;;;;1.47;0.90;;;24.10;84.80;;;;;;4962406;28;20500;-79